首页
METAR-TAF:

METAR-TAF

机场 :

那不勒斯, 佛罗里达州, 美国

纬度: 26-09N, 经度: 081-46W, 海拔: 2米

当前天气观测

该预报发布于40分钟前的20:53 UTC
风速10节,风向
温度 31°C
湿度 55%
气压 1016 hPa
能見度: 16.1公里
天空无云

METAR: KAPF 282053Z 19010KT 10SM CLR 31/21 A3000 RMK ASOS XMIT OTS.

时间: 17:33 (21:33 UTC)

预报

该预报发布于38分钟前的20:55 UTC
预报有效从28日的 21点(UTC)到 29日的 18点(UTC)
风速12节,风向南转西南
能見度: 10公里
少量云层高于3000英尺
从 29日的 0100点(UTC)
风速3节,风向多变
能見度: 10公里
散云层高于2500英尺
从 29日的 0600点(UTC)
风速3节,风向多变
能見度: 9.7公里
少量云层高于2500英尺
轻雾, 碎片雾
从 29日的 1400点(UTC)
风速8节,风向东转东南
能見度: 10公里
少量云层高于3000英尺

TAF: KAPF 282055Z 2821/2918 20012KT P6SM FEW030 FM290100 VRB03KT P6SM SCT025 FM290600 VRB03KT 6SM BR BCFG FEW025 FM291400 12008KT P6SM FEW030

超过4000个机场的气象观测和天气预报(METAR&TAF报告)。

可查询的气象台以黄色和红色小点在地图上表示。

将鼠标移到小点上方,可查看气象台名称。

然后点击查看天气观测和预报。

如需切换地图:点击带黑十字的绿色按钮放大地图;点击带横线的绿色按钮缩小地图;或者点击绿色箭头查看邻近地区的地图。


METAR-TAF: